Record high temperature 38.5°C Record low temperature -6.1°C Record high gust 94.9 km/h Record high average 70.9 km/h Record daily rain 58.2 mm Record low windchill -9.9°C Record high barometer 1045.9 hPa Record low barometer 985.2 hPa
Daily high pressure 1017.7 hPa Daily low pressure 1013.8 hPa Daily low windchill 7.4°C Daily high heat index 17.5°C Daily high gust speed 20.9 kmh WNW Daily high average speed 17.7 kmh SSW
Stazione meteo Crema centro
ULTIMO RILEVAMENTO ALLE ORE: 17:30 GIORNO: 19 Aprile 2021 prossimo aggiornamento ore: 17:35
Tempo presentePartly cloudy/Dry Temperatura attuale 16.3°C (61.3°F), temperatura apparente 15.8°C, Apparent temp solar 20.4°C
Temperatura massima (da mezzanotte)17.5°C alle ore: 16:06 Temperatura minima (da mezzanotte)7.5°C alle ore: 07:36
Forza media vento (dieci minuti)3.7 kmh (2.0 kts) Direzione vento (dieci minuti)SE (143°)
Temperatura vento 16.3°C Massima forza (ultima ora)12.9 kmh (7.0 kts) alle ore: 17:05
Massima forza (da mezzanotte)20.9 kmh (11.3 kts) alle ore: 12:24 Massimo vento 1 minuto (da mezzanotte)17.7 kmh (9.6 kts) alle ore: 15:08
Pioggia (ultima ora)0.0 mm Pioggia (da mezzanotte)0.0 mm (0.00 in.)---
Pioggia Questo mese 44.2 mm (1.74 in.) Pioggia Questo anno 195.3 mm (7.69 in.)
Massima pioggia per minuto (ultima ora)0.0 mm/min Massima pioggia per ora (ultime 6 ore)0.0 mm/ore
Pioggia di ieri 0.8 mm DewPoint 4.6°C (Wet Bulb :10.8°C )
Umidita 46 %, Humidex 15.4°C Pressione S.L.M.1013.9 hPa (QNH 1013.9 hPa
Variazione pressione -0.5 hPa (ultima ora) Tendenza (ultime 1 ore)Stazionaria
Variazione pressione (ultime 12 ore)-2.8 hPa Variazione pressione (ultime 6 ore)-3.1 hPa
Current Solar 415 W/mē
Maximum solar (da mezzanotte) 870 W/mē Minimum solar (da mezzanotte)0 W/mē
Current 07:47 hours of sunshine today, current sky: Partly cloudy
Sunshine hours for the year: 456:31 hrs Sunshine hours for the month: 107:17 hrs
Current evapotranspiration rate 3.7 mm per day. Yesterday's reading 2.6

Questa pagina e` aggiornata con i dati della stazione meteo DAVIS VP Premere Reload o Refresh per facilitare la lettura dei dati aggiornati.

Status report of weather station: IK2CHZ - Crema meteo



Weather report/warning/Metars

Milano / Linate, Italy (LIML) 45-26N 009-17E 103M
Apr 19, 2021 - 10:50 AM EDT / 2021.04.19 1450 UTC
Wind: from the SSE (150 degrees) at 5 MPH (4 KT) (direction variable):0
Visibility: greater than 7 mile(s):0
Sky conditions: mostly cloudy
Temperature: 62 F (17 C)
Dew Point: 37 F (3 C)
Relative Humidity: 39%
Pressure (altimeter): 29.94 in. Hg (1014 hPa)
ob: LIML 191450Z 15004KT 060V220 9999 BKN040 17/03 Q1014 NOSIG
cycle: 15
Bergamo / Orio Al Serio, Italy (LIME) 45-40N 009-42E 237M
Apr 19, 2021 - 10:50 AM EDT / 2021.04.19 1450 UTC
Wind: from the SSW (210 degrees) at 5 MPH (4 KT) (direction variable):0
Visibility: greater than 7 mile(s):0
Sky conditions: mostly clear
Temperature: 57 F (14 C)
Dew Point: 35 F (2 C)
Relative Humidity: 44%
Pressure (altimeter): 29.94 in. Hg (1014 hPa)
ob: LIME 191450Z 21004KT 180V250 9999 FEW100 14/02 Q1014 NOSIG
cycle: 15
Piacenza, Italy (LIMS) 44-55N 009-44E 138M
Apr 19, 2021 - 10:55 AM EDT / 2021.04.19 1455 UTC
Wind: from the E (090 degrees) at 2 MPH (2 KT):0
Visibility: greater than 7 mile(s):0
Sky conditions: mostly clear
Temperature: 59 F (15 C)
Dew Point: 41 F (5 C)
Relative Humidity: 51%
Pressure (altimeter): 29.91 in. Hg (1013 hPa)
ob: LIMS 191455Z 09002KT 9999 FEW040 15/05 Q1013
cycle: 15